sensor_id;sensor_type;location;lat;lon;timestamp;P1;durP1;ratioP1;P2;durP2;ratioP2
18931;SDS011;9598;50.954;3.112;2023-12-14T00:03:49;41.60;;;24.30;;
18931;SDS011;9598;50.954;3.112;2023-12-14T00:08:52;35.13;;;21.98;;
18931;SDS011;9598;50.954;3.112;2023-12-14T00:13:54;33.65;;;21.13;;
18931;SDS011;9598;50.954;3.112;2023-12-14T00:18:56;27.75;;;17.00;;
18931;SDS011;9598;50.954;3.112;2023-12-14T00:24:00;20.67;;;13.68;;
18931;SDS011;9598;50.954;3.112;2023-12-14T00:29:02;17.23;;;11.50;;
18931;SDS011;9598;50.954;3.112;2023-12-14T00:34:04;12.48;;;10.05;;
18931;SDS011;9598;50.954;3.112;2023-12-14T00:39:08;15.50;;;10.52;;
18931;SDS011;9598;50.954;3.112;2023-12-14T00:44:10;17.30;;;11.48;;
18931;SDS011;9598;50.954;3.112;2023-12-14T00:49:12;18.42;;;13.40;;
18931;SDS011;9598;50.954;3.112;2023-12-14T00:54:15;14.88;;;11.40;;
18931;SDS011;9598;50.954;3.112;2023-12-14T00:59:17;13.65;;;10.20;;
18931;SDS011;9598;50.954;3.112;2023-12-14T01:04:19;11.55;;;8.95;;
18931;SDS011;9598;50.954;3.112;2023-12-14T01:09:23;10.30;;;6.88;;
18931;SDS011;9598;50.954;3.112;2023-12-14T01:14:25;13.95;;;7.13;;
18931;SDS011;9598;50.954;3.112;2023-12-14T01:19:27;11.77;;;6.32;;
18931;SDS011;9598;50.954;3.112;2023-12-14T01:24:31;7.32;;;5.28;;
18931;SDS011;9598;50.954;3.112;2023-12-14T01:29:33;9.13;;;5.03;;
18931;SDS011;9598;50.954;3.112;2023-12-14T01:34:35;8.93;;;4.32;;
18931;SDS011;9598;50.954;3.112;2023-12-14T01:39:38;10.70;;;4.88;;
18931;SDS011;9598;50.954;3.112;2023-12-14T01:44:40;7.93;;;3.92;;
18931;SDS011;9598;50.954;3.112;2023-12-14T01:49:42;9.73;;;3.85;;
18931;SDS011;9598;50.954;3.112;2023-12-14T01:54:46;9.15;;;3.40;;
18931;SDS011;9598;50.954;3.112;2023-12-14T01:59:48;8.75;;;4.20;;
18931;SDS011;9598;50.954;3.112;2023-12-14T02:04:50;10.68;;;3.97;;
18931;SDS011;9598;50.954;3.112;2023-12-14T02:09:54;6.32;;;4.13;;
18931;SDS011;9598;50.954;3.112;2023-12-14T02:14:56;7.57;;;4.55;;
18931;SDS011;9598;50.954;3.112;2023-12-14T02:19:58;7.90;;;4.00;;
18931;SDS011;9598;50.954;3.112;2023-12-14T02:25:02;5.72;;;3.58;;
18931;SDS011;9598;50.954;3.112;2023-12-14T02:30:05;6.40;;;4.15;;
18931;SDS011;9598;50.954;3.112;2023-12-14T02:35:08;5.28;;;3.15;;
18931;SDS011;9598;50.954;3.112;2023-12-14T02:40:11;7.10;;;3.47;;
18931;SDS011;9598;50.954;3.112;2023-12-14T02:45:14;7.35;;;4.35;;
18931;SDS011;9598;50.954;3.112;2023-12-14T02:50:16;7.43;;;4.13;;
18931;SDS011;9598;50.954;3.112;2023-12-14T02:55:19;9.05;;;3.95;;
18931;SDS011;9598;50.954;3.112;2023-12-14T03:00:21;9.05;;;3.78;;
18931;SDS011;9598;50.954;3.112;2023-12-14T03:05:23;9.10;;;3.88;;
18931;SDS011;9598;50.954;3.112;2023-12-14T03:10:27;8.85;;;4.40;;
18931;SDS011;9598;50.954;3.112;2023-12-14T03:15:29;7.40;;;3.78;;
18931;SDS011;9598;50.954;3.112;2023-12-14T03:20:31;10.02;;;4.75;;
18931;SDS011;9598;50.954;3.112;2023-12-14T03:25:34;9.57;;;4.20;;
18931;SDS011;9598;50.954;3.112;2023-12-14T03:30:36;8.90;;;4.10;;
18931;SDS011;9598;50.954;3.112;2023-12-14T03:35:38;9.05;;;4.50;;
18931;SDS011;9598;50.954;3.112;2023-12-14T03:40:43;8.00;;;4.60;;
18931;SDS011;9598;50.954;3.112;2023-12-14T03:45:45;8.70;;;4.63;;
18931;SDS011;9598;50.954;3.112;2023-12-14T03:50:47;9.23;;;4.53;;
18931;SDS011;9598;50.954;3.112;2023-12-14T03:55:51;7.95;;;4.32;;
18931;SDS011;9598;50.954;3.112;2023-12-14T04:00:53;8.23;;;4.35;;
18931;SDS011;9598;50.954;3.112;2023-12-14T04:05:55;8.15;;;4.55;;
18931;SDS011;9598;50.954;3.112;2023-12-14T04:10:58;10.10;;;4.90;;
18931;SDS011;9598;50.954;3.112;2023-12-14T04:16:00;7.10;;;5.00;;
18931;SDS011;9598;50.954;3.112;2023-12-14T04:21:03;9.68;;;5.25;;
18931;SDS011;9598;50.954;3.112;2023-12-14T04:26:07;7.80;;;4.63;;
18931;SDS011;9598;50.954;3.112;2023-12-14T04:31:09;9.52;;;5.72;;
18931;SDS011;9598;50.954;3.112;2023-12-14T04:36:12;7.90;;;4.88;;
18931;SDS011;9598;50.954;3.112;2023-12-14T04:41:15;9.20;;;5.82;;
18931;SDS011;9598;50.954;3.112;2023-12-14T04:46:18;10.10;;;6.43;;
18931;SDS011;9598;50.954;3.112;2023-12-14T04:51:20;10.07;;;6.75;;
18931;SDS011;9598;50.954;3.112;2023-12-14T04:56:23;9.90;;;5.10;;
18931;SDS011;9598;50.954;3.112;2023-12-14T05:01:25;10.40;;;5.03;;
18931;SDS011;9598;50.954;3.112;2023-12-14T05:06:28;6.70;;;5.40;;
18931;SDS011;9598;50.954;3.112;2023-12-14T05:11:31;11.23;;;5.28;;
18931;SDS011;9598;50.954;3.112;2023-12-14T05:16:33;9.32;;;5.35;;
18931;SDS011;9598;50.954;3.112;2023-12-14T05:21:35;8.30;;;4.90;;
18931;SDS011;9598;50.954;3.112;2023-12-14T05:26:39;8.10;;;5.63;;
18931;SDS011;9598;50.954;3.112;2023-12-14T05:31:41;9.23;;;5.93;;
18931;SDS011;9598;50.954;3.112;2023-12-14T05:36:43;5.97;;;5.32;;
18931;SDS011;9598;50.954;3.112;2023-12-14T05:41:46;7.15;;;6.22;;
18931;SDS011;9598;50.954;3.112;2023-12-14T05:46:49;11.82;;;6.13;;
18931;SDS011;9598;50.954;3.112;2023-12-14T05:51:51;7.40;;;6.10;;
18931;SDS011;9598;50.954;3.112;2023-12-14T05:56:54;9.60;;;6.05;;
18931;SDS011;9598;50.954;3.112;2023-12-14T06:01:56;10.45;;;6.78;;
18931;SDS011;9598;50.954;3.112;2023-12-14T06:06:59;10.60;;;5.97;;
18931;SDS011;9598;50.954;3.112;2023-12-14T06:12:03;9.30;;;6.47;;
18931;SDS011;9598;50.954;3.112;2023-12-14T06:17:05;11.30;;;6.35;;
18931;SDS011;9598;50.954;3.112;2023-12-14T06:22:07;10.63;;;7.32;;
18931;SDS011;9598;50.954;3.112;2023-12-14T06:27:11;8.50;;;6.50;;
18931;SDS011;9598;50.954;3.112;2023-12-14T06:32:13;7.68;;;6.60;;
18931;SDS011;9598;50.954;3.112;2023-12-14T06:37:15;13.02;;;7.03;;
18931;SDS011;9598;50.954;3.112;2023-12-14T06:42:18;9.40;;;6.15;;
18931;SDS011;9598;50.954;3.112;2023-12-14T06:47:21;7.40;;;6.05;;
18931;SDS011;9598;50.954;3.112;2023-12-14T06:52:23;7.22;;;5.43;;
18931;SDS011;9598;50.954;3.112;2023-12-14T06:57:27;9.40;;;5.47;;
18931;SDS011;9598;50.954;3.112;2023-12-14T07:02:29;7.82;;;5.80;;
18931;SDS011;9598;50.954;3.112;2023-12-14T07:07:31;8.75;;;6.93;;
18931;SDS011;9598;50.954;3.112;2023-12-14T07:12:34;8.60;;;7.18;;
18931;SDS011;9598;50.954;3.112;2023-12-14T07:17:36;10.98;;;7.25;;
18931;SDS011;9598;50.954;3.112;2023-12-14T07:22:39;11.55;;;7.60;;
18931;SDS011;9598;50.954;3.112;2023-12-14T07:27:42;8.43;;;7.55;;
18931;SDS011;9598;50.954;3.112;2023-12-14T07:32:44;10.68;;;7.95;;
18931;SDS011;9598;50.954;3.112;2023-12-14T07:37:46;11.40;;;8.63;;
18931;SDS011;9598;50.954;3.112;2023-12-14T07:42:50;14.68;;;9.27;;
18931;SDS011;9598;50.954;3.112;2023-12-14T07:47:52;10.70;;;8.35;;
18931;SDS011;9598;50.954;3.112;2023-12-14T07:52:54;14.02;;;8.23;;
18931;SDS011;9598;50.954;3.112;2023-12-14T07:57:57;10.45;;;8.00;;
18931;SDS011;9598;50.954;3.112;2023-12-14T08:02:59;10.90;;;8.20;;
18931;SDS011;9598;50.954;3.112;2023-12-14T08:08:02;12.43;;;8.70;;
18931;SDS011;9598;50.954;3.112;2023-12-14T08:13:05;11.05;;;8.77;;
18931;SDS011;9598;50.954;3.112;2023-12-14T08:18:07;10.95;;;9.18;;
18931;SDS011;9598;50.954;3.112;2023-12-14T08:23:09;13.95;;;9.95;;
18931;SDS011;9598;50.954;3.112;2023-12-14T08:28:13;14.75;;;9.02;;
18931;SDS011;9598;50.954;3.112;2023-12-14T08:33:15;10.90;;;8.20;;
18931;SDS011;9598;50.954;3.112;2023-12-14T08:38:17;12.07;;;9.02;;
18931;SDS011;9598;50.954;3.112;2023-12-14T08:43:20;12.10;;;9.00;;
18931;SDS011;9598;50.954;3.112;2023-12-14T08:48:24;9.75;;;7.80;;
18931;SDS011;9598;50.954;3.112;2023-12-14T08:53:26;12.52;;;8.05;;
18931;SDS011;9598;50.954;3.112;2023-12-14T08:58:30;11.68;;;7.93;;
18931;SDS011;9598;50.954;3.112;2023-12-14T09:03:32;10.60;;;8.20;;
18931;SDS011;9598;50.954;3.112;2023-12-14T09:08:34;12.00;;;8.27;;
18931;SDS011;9598;50.954;3.112;2023-12-14T09:13:37;11.48;;;7.88;;
18931;SDS011;9598;50.954;3.112;2023-12-14T09:18:39;8.98;;;7.63;;
18931;SDS011;9598;50.954;3.112;2023-12-14T09:23:42;12.05;;;8.05;;
18931;SDS011;9598;50.954;3.112;2023-12-14T09:28:46;13.38;;;8.70;;
18931;SDS011;9598;50.954;3.112;2023-12-14T09:33:48;11.07;;;9.02;;
18931;SDS011;9598;50.954;3.112;2023-12-14T09:38:50;13.75;;;8.52;;
18931;SDS011;9598;50.954;3.112;2023-12-14T09:43:53;9.38;;;7.28;;
18931;SDS011;9598;50.954;3.112;2023-12-14T09:48:55;11.38;;;6.85;;
18931;SDS011;9598;50.954;3.112;2023-12-14T09:54:01;12.25;;;7.20;;
18931;SDS011;9598;50.954;3.112;2023-12-14T09:59:06;10.65;;;7.13;;
18931;SDS011;9598;50.954;3.112;2023-12-14T10:04:08;10.95;;;7.15;;
18931;SDS011;9598;50.954;3.112;2023-12-14T10:09:11;11.13;;;7.18;;
18931;SDS011;9598;50.954;3.112;2023-12-14T10:14:21;11.57;;;6.60;;
18931;SDS011;9598;50.954;3.112;2023-12-14T10:19:24;7.57;;;5.53;;
18931;SDS011;9598;50.954;3.112;2023-12-14T10:24:27;8.40;;;4.72;;
18931;SDS011;9598;50.954;3.112;2023-12-14T10:29:30;7.60;;;4.05;;
18931;SDS011;9598;50.954;3.112;2023-12-14T10:34:34;5.80;;;3.63;;
18931;SDS011;9598;50.954;3.112;2023-12-14T10:39:37;6.65;;;3.20;;
18931;SDS011;9598;50.954;3.112;2023-12-14T10:44:43;4.63;;;2.13;;
18931;SDS011;9598;50.954;3.112;2023-12-14T10:49:46;5.85;;;2.30;;
18931;SDS011;9598;50.954;3.112;2023-12-14T10:54:52;3.85;;;2.40;;
18931;SDS011;9598;50.954;3.112;2023-12-14T10:59:59;5.72;;;2.17;;
18931;SDS011;9598;50.954;3.112;2023-12-14T11:05:02;6.25;;;2.83;;
18931;SDS011;9598;50.954;3.112;2023-12-14T11:10:09;7.22;;;2.58;;
18931;SDS011;9598;50.954;3.112;2023-12-14T11:15:13;7.18;;;2.65;;
18931;SDS011;9598;50.954;3.112;2023-12-14T11:20:24;4.65;;;2.50;;
18931;SDS011;9598;50.954;3.112;2023-12-14T11:25:26;5.97;;;2.90;;
18931;SDS011;9598;50.954;3.112;2023-12-14T11:30:30;5.68;;;2.97;;
18931;SDS011;9598;50.954;3.112;2023-12-14T11:35:32;6.40;;;3.15;;
18931;SDS011;9598;50.954;3.112;2023-12-14T11:40:34;5.00;;;3.13;;
18931;SDS011;9598;50.954;3.112;2023-12-14T11:45:38;5.05;;;2.58;;
18931;SDS011;9598;50.954;3.112;2023-12-14T11:50:41;5.88;;;2.95;;
18931;SDS011;9598;50.954;3.112;2023-12-14T11:55:44;6.20;;;2.80;;
18931;SDS011;9598;50.954;3.112;2023-12-14T12:00:48;6.60;;;2.95;;
18931;SDS011;9598;50.954;3.112;2023-12-14T12:05:50;4.05;;;2.20;;
18931;SDS011;9598;50.954;3.112;2023-12-14T12:10:53;5.95;;;2.60;;
18931;SDS011;9598;50.954;3.112;2023-12-14T12:15:57;10.20;;;2.70;;
18931;SDS011;9598;50.954;3.112;2023-12-14T12:20:59;6.65;;;2.75;;
18931;SDS011;9598;50.954;3.112;2023-12-14T12:26:04;5.80;;;2.45;;
18931;SDS011;9598;50.954;3.112;2023-12-14T12:31:08;6.53;;;2.45;;
18931;SDS011;9598;50.954;3.112;2023-12-14T12:36:10;5.13;;;1.92;;
18931;SDS011;9598;50.954;3.112;2023-12-14T12:41:12;6.45;;;1.85;;
18931;SDS011;9598;50.954;3.112;2023-12-14T12:46:15;5.65;;;1.88;;
18931;SDS011;9598;50.954;3.112;2023-12-14T12:51:18;5.97;;;2.88;;
18931;SDS011;9598;50.954;3.112;2023-12-14T12:56:22;5.53;;;2.63;;
18931;SDS011;9598;50.954;3.112;2023-12-14T13:01:25;4.22;;;2.05;;
18931;SDS011;9598;50.954;3.112;2023-12-14T13:06:27;5.45;;;2.00;;
18931;SDS011;9598;50.954;3.112;2023-12-14T13:11:29;5.03;;;2.45;;
18931;SDS011;9598;50.954;3.112;2023-12-14T13:16:33;4.93;;;1.88;;
18931;SDS011;9598;50.954;3.112;2023-12-14T13:21:35;5.30;;;1.85;;
18931;SDS011;9598;50.954;3.112;2023-12-14T13:26:37;3.33;;;2.22;;
18931;SDS011;9598;50.954;3.112;2023-12-14T13:31:41;4.78;;;2.03;;
18931;SDS011;9598;50.954;3.112;2023-12-14T13:36:43;5.57;;;2.15;;
18931;SDS011;9598;50.954;3.112;2023-12-14T13:41:45;4.80;;;2.00;;
18931;SDS011;9598;50.954;3.112;2023-12-14T13:46:49;7.78;;;2.50;;
18931;SDS011;9598;50.954;3.112;2023-12-14T13:51:53;7.40;;;2.40;;
18931;SDS011;9598;50.954;3.112;2023-12-14T13:56:55;5.72;;;2.15;;
18931;SDS011;9598;50.954;3.112;2023-12-14T14:01:59;5.95;;;2.90;;
18931;SDS011;9598;50.954;3.112;2023-12-14T14:07:01;4.72;;;1.95;;
18931;SDS011;9598;50.954;3.112;2023-12-14T14:12:04;3.92;;;2.28;;
18931;SDS011;9598;50.954;3.112;2023-12-14T14:17:07;7.20;;;2.38;;
18931;SDS011;9598;50.954;3.112;2023-12-14T14:22:10;5.90;;;1.95;;
18931;SDS011;9598;50.954;3.112;2023-12-14T14:27:12;3.53;;;1.90;;
18931;SDS011;9598;50.954;3.112;2023-12-14T14:32:16;5.25;;;1.98;;
18931;SDS011;9598;50.954;3.112;2023-12-14T14:37:19;3.67;;;2.15;;
18931;SDS011;9598;50.954;3.112;2023-12-14T14:42:21;4.00;;;2.10;;
18931;SDS011;9598;50.954;3.112;2023-12-14T14:47:25;4.05;;;2.20;;
18931;SDS011;9598;50.954;3.112;2023-12-14T14:52:28;5.03;;;3.20;;
18931;SDS011;9598;50.954;3.112;2023-12-14T14:57:30;5.32;;;3.50;;
18931;SDS011;9598;50.954;3.112;2023-12-14T15:02:35;5.70;;;3.22;;
18931;SDS011;9598;50.954;3.112;2023-12-14T15:07:37;6.88;;;3.13;;
18931;SDS011;9598;50.954;3.112;2023-12-14T15:12:39;4.55;;;3.00;;
18931;SDS011;9598;50.954;3.112;2023-12-14T15:17:42;6.03;;;2.85;;
18931;SDS011;9598;50.954;3.112;2023-12-14T15:22:44;3.33;;;2.95;;
18931;SDS011;9598;50.954;3.112;2023-12-14T15:27:46;6.95;;;3.33;;
18931;SDS011;9598;50.954;3.112;2023-12-14T15:32:50;5.32;;;2.80;;
18931;SDS011;9598;50.954;3.112;2023-12-14T15:37:52;6.28;;;2.67;;
18931;SDS011;9598;50.954;3.112;2023-12-14T15:42:54;5.18;;;3.25;;
18931;SDS011;9598;50.954;3.112;2023-12-14T15:47:58;5.75;;;3.60;;
18931;SDS011;9598;50.954;3.112;2023-12-14T15:53:00;8.73;;;3.78;;
18931;SDS011;9598;50.954;3.112;2023-12-14T15:58:02;5.38;;;3.53;;
18931;SDS011;9598;50.954;3.112;2023-12-14T16:03:06;7.43;;;3.22;;
18931;SDS011;9598;50.954;3.112;2023-12-14T16:08:08;4.05;;;3.13;;
18931;SDS011;9598;50.954;3.112;2023-12-14T16:13:11;4.25;;;3.65;;
18931;SDS011;9598;50.954;3.112;2023-12-14T16:18:14;5.78;;;4.05;;
18931;SDS011;9598;50.954;3.112;2023-12-14T16:23:17;4.80;;;3.50;;
18931;SDS011;9598;50.954;3.112;2023-12-14T16:28:19;9.07;;;5.22;;
18931;SDS011;9598;50.954;3.112;2023-12-14T16:33:23;7.30;;;4.20;;
18931;SDS011;9598;50.954;3.112;2023-12-14T16:38:25;8.57;;;3.72;;
18931;SDS011;9598;50.954;3.112;2023-12-14T16:43:28;7.78;;;4.68;;
18931;SDS011;9598;50.954;3.112;2023-12-14T16:48:32;6.47;;;4.10;;
18931;SDS011;9598;50.954;3.112;2023-12-14T16:53:34;6.00;;;4.05;;
18931;SDS011;9598;50.954;3.112;2023-12-14T16:58:36;4.90;;;3.85;;
18931;SDS011;9598;50.954;3.112;2023-12-14T17:03:40;8.38;;;4.57;;
18931;SDS011;9598;50.954;3.112;2023-12-14T17:08:42;8.35;;;4.50;;
18931;SDS011;9598;50.954;3.112;2023-12-14T17:13:44;5.40;;;4.13;;
18931;SDS011;9598;50.954;3.112;2023-12-14T17:18:48;8.55;;;4.68;;
18931;SDS011;9598;50.954;3.112;2023-12-14T17:23:50;9.40;;;5.50;;
18931;SDS011;9598;50.954;3.112;2023-12-14T17:28:55;9.45;;;5.25;;
18931;SDS011;9598;50.954;3.112;2023-12-14T17:33:59;7.22;;;5.22;;
18931;SDS011;9598;50.954;3.112;2023-12-14T17:39:01;6.97;;;5.78;;
18931;SDS011;9598;50.954;3.112;2023-12-14T17:44:04;8.95;;;6.63;;
18931;SDS011;9598;50.954;3.112;2023-12-14T17:49:07;9.57;;;6.20;;
18931;SDS011;9598;50.954;3.112;2023-12-14T17:54:11;8.45;;;5.80;;
18931;SDS011;9598;50.954;3.112;2023-12-14T17:59:14;7.80;;;6.00;;
18931;SDS011;9598;50.954;3.112;2023-12-14T18:04:17;7.22;;;5.65;;
18931;SDS011;9598;50.954;3.112;2023-12-14T18:09:21;8.70;;;6.95;;
18931;SDS011;9598;50.954;3.112;2023-12-14T18:14:23;8.88;;;6.10;;
18931;SDS011;9598;50.954;3.112;2023-12-14T18:19:27;9.35;;;7.53;;
18931;SDS011;9598;50.954;3.112;2023-12-14T18:24:29;9.95;;;7.32;;
18931;SDS011;9598;50.954;3.112;2023-12-14T18:29:32;7.55;;;6.60;;
18931;SDS011;9598;50.954;3.112;2023-12-14T18:34:35;7.68;;;5.68;;
18931;SDS011;9598;50.954;3.112;2023-12-14T18:39:38;7.32;;;6.03;;
18931;SDS011;9598;50.954;3.112;2023-12-14T18:44:41;7.88;;;6.10;;
18931;SDS011;9598;50.954;3.112;2023-12-14T18:49:44;9.48;;;6.70;;
18931;SDS011;9598;50.954;3.112;2023-12-14T18:54:46;9.65;;;6.57;;
18931;SDS011;9598;50.954;3.112;2023-12-14T18:59:48;9.25;;;6.57;;
18931;SDS011;9598;50.954;3.112;2023-12-14T19:04:52;9.40;;;7.35;;
18931;SDS011;9598;50.954;3.112;2023-12-14T19:09:55;11.18;;;7.20;;
18931;SDS011;9598;50.954;3.112;2023-12-14T19:14:57;8.27;;;7.18;;
18931;SDS011;9598;50.954;3.112;2023-12-14T19:20:01;9.57;;;7.40;;
18931;SDS011;9598;50.954;3.112;2023-12-14T19:25:03;9.60;;;7.45;;
18931;SDS011;9598;50.954;3.112;2023-12-14T19:30:09;11.32;;;7.22;;
18931;SDS011;9598;50.954;3.112;2023-12-14T19:35:15;7.90;;;7.15;;
18931;SDS011;9598;50.954;3.112;2023-12-14T19:40:18;9.77;;;7.70;;
18931;SDS011;9598;50.954;3.112;2023-12-14T19:45:21;9.05;;;7.60;;
18931;SDS011;9598;50.954;3.112;2023-12-14T19:50:26;8.05;;;7.22;;
18931;SDS011;9598;50.954;3.112;2023-12-14T19:55:28;8.57;;;7.60;;
18931;SDS011;9598;50.954;3.112;2023-12-14T20:00:31;8.40;;;7.60;;
18931;SDS011;9598;50.954;3.112;2023-12-14T20:05:34;10.50;;;8.32;;
18931;SDS011;9598;50.954;3.112;2023-12-14T20:10:38;10.63;;;7.90;;
18931;SDS011;9598;50.954;3.112;2023-12-14T20:15:41;8.80;;;7.93;;
18931;SDS011;9598;50.954;3.112;2023-12-14T20:20:45;12.23;;;9.38;;
18931;SDS011;9598;50.954;3.112;2023-12-14T20:25:48;9.82;;;8.65;;
18931;SDS011;9598;50.954;3.112;2023-12-14T20:30:50;8.90;;;7.50;;
18931;SDS011;9598;50.954;3.112;2023-12-14T20:35:54;8.48;;;7.57;;
18931;SDS011;9598;50.954;3.112;2023-12-14T20:40:56;9.25;;;7.32;;
18931;SDS011;9598;50.954;3.112;2023-12-14T20:45:58;9.45;;;7.57;;
18931;SDS011;9598;50.954;3.112;2023-12-14T20:51:02;10.90;;;8.07;;
18931;SDS011;9598;50.954;3.112;2023-12-14T20:56:05;8.95;;;7.65;;
18931;SDS011;9598;50.954;3.112;2023-12-14T21:01:07;10.15;;;7.75;;
18931;SDS011;9598;50.954;3.112;2023-12-14T21:06:10;9.90;;;7.65;;
18931;SDS011;9598;50.954;3.112;2023-12-14T21:11:12;10.98;;;7.68;;
18931;SDS011;9598;50.954;3.112;2023-12-14T21:16:15;10.35;;;8.60;;
18931;SDS011;9598;50.954;3.112;2023-12-14T21:21:18;9.40;;;8.23;;
18931;SDS011;9598;50.954;3.112;2023-12-14T21:26:21;10.55;;;9.05;;
18931;SDS011;9598;50.954;3.112;2023-12-14T21:31:23;11.73;;;9.70;;
18931;SDS011;9598;50.954;3.112;2023-12-14T21:36:27;11.80;;;10.23;;
18931;SDS011;9598;50.954;3.112;2023-12-14T21:41:29;12.07;;;10.90;;
18931;SDS011;9598;50.954;3.112;2023-12-14T21:46:31;14.68;;;12.60;;
18931;SDS011;9598;50.954;3.112;2023-12-14T21:51:35;13.98;;;12.55;;
18931;SDS011;9598;50.954;3.112;2023-12-14T21:56:37;12.18;;;10.95;;
18931;SDS011;9598;50.954;3.112;2023-12-14T22:01:39;12.25;;;11.07;;
18931;SDS011;9598;50.954;3.112;2023-12-14T22:06:43;14.05;;;10.85;;
18931;SDS011;9598;50.954;3.112;2023-12-14T22:11:45;13.55;;;10.93;;
18931;SDS011;9598;50.954;3.112;2023-12-14T22:16:47;12.38;;;10.77;;
18931;SDS011;9598;50.954;3.112;2023-12-14T22:21:52;12.15;;;10.77;;
18931;SDS011;9598;50.954;3.112;2023-12-14T22:26:54;13.02;;;11.55;;
18931;SDS011;9598;50.954;3.112;2023-12-14T22:31:57;12.00;;;9.77;;
18931;SDS011;9598;50.954;3.112;2023-12-14T22:37:01;10.20;;;9.20;;
18931;SDS011;9598;50.954;3.112;2023-12-14T22:42:03;12.38;;;10.55;;
18931;SDS011;9598;50.954;3.112;2023-12-14T22:47:06;10.48;;;9.38;;
18931;SDS011;9598;50.954;3.112;2023-12-14T22:52:10;10.68;;;9.68;;
18931;SDS011;9598;50.954;3.112;2023-12-14T22:57:12;11.48;;;9.27;;
18931;SDS011;9598;50.954;3.112;2023-12-14T23:02:14;12.23;;;9.98;;
18931;SDS011;9598;50.954;3.112;2023-12-14T23:07:17;12.75;;;9.25;;
18931;SDS011;9598;50.954;3.112;2023-12-14T23:12:19;11.55;;;10.38;;
18931;SDS011;9598;50.954;3.112;2023-12-14T23:17:22;12.02;;;10.82;;
18931;SDS011;9598;50.954;3.112;2023-12-14T23:22:25;13.13;;;10.45;;
18931;SDS011;9598;50.954;3.112;2023-12-14T23:27:27;11.00;;;9.82;;
18931;SDS011;9598;50.954;3.112;2023-12-14T23:32:30;11.65;;;10.52;;
18931;SDS011;9598;50.954;3.112;2023-12-14T23:37:35;12.48;;;10.52;;
18931;SDS011;9598;50.954;3.112;2023-12-14T23:42:37;13.98;;;11.98;;
18931;SDS011;9598;50.954;3.112;2023-12-14T23:47:39;13.65;;;11.23;;
18931;SDS011;9598;50.954;3.112;2023-12-14T23:52:43;14.55;;;11.25;;
18931;SDS011;9598;50.954;3.112;2023-12-14T23:57:45;14.02;;;12.00;;
